Time;durP1;ratioP1;P1;durP2;ratioP2;P2;SDS_P1;SDS_P2;PMS_P1;PMS_P2;Temp;Humidity;BMP_temperature;BMP_pressure;BME280_temperature;BME280_humidity;BME280_pressure;Samples;Min_cycle;Max_cycle;Signal;HPM_P1;HPM_P2
2022/05/03 00:01:05;;;;;;;4.97;4.47;;;;;;;11.48;100.00;96106.31;5033480;27;105300;-77
2022/05/03 00:03:42;;;;;;;4.57;4.20;;;;;;;11.51;100.00;96107.66;5054520;27;101846;-77
2022/05/03 00:06:19;;;;;;;6.10;4.50;;;;;;;11.40;100.00;96106.78;5051690;27;102873;-77
2022/05/03 00:08:53;;;;;;;4.37;3.97;;;;;;;11.35;100.00;96108.66;5052677;27;101785;-77
2022/05/03 00:11:30;;;;;;;4.77;4.37;;;;;;;11.36;100.00;96099.59;5033951;27;105069;-77
2022/05/03 00:14:06;;;;;;;4.80;4.30;;;;;;;11.24;100.00;96099.81;5033170;27;105578;-77
2022/05/03 00:16:35;;;;;;;4.93;3.80;;;;;;;11.21;100.00;96097.69;5033530;27;101890;-77
2022/05/03 00:19:05;;;;;;;4.10;3.70;;;;;;;11.29;100.00;96099.06;5050509;27;105385;-77
2022/05/03 00:21:34;;;;;;;4.73;3.93;;;;;;;11.24;100.00;96101.69;5050982;27;101997;-77
2022/05/03 00:24:04;;;;;;;3.90;3.50;;;;;;;11.17;100.00;96093.94;5037178;27;102317;-77
2022/05/03 00:26:31;;;;;;;3.87;3.47;;;;;;;11.16;100.00;96104.84;5050843;27;102851;-77
2022/05/03 00:28:59;;;;;;;3.47;3.17;;;;;;;11.06;100.00;96099.50;5033581;27;102030;-77
2022/05/03 00:31:28;;;;;;;3.40;3.10;;;;;;;11.08;100.00;96097.38;5033733;27;105139;-77
2022/05/03 00:33:57;;;;;;;4.13;3.20;;;;;;;11.00;100.00;96095.19;5032974;27;106952;-77
2022/05/03 00:36:24;;;;;;;3.50;3.17;;;;;;;10.91;100.00;96086.13;5033392;27;101989;-77
2022/05/03 00:38:52;;;;;;;3.57;3.27;;;;;;;10.89;100.00;96091.72;5050342;27;105562;-77
2022/05/03 00:41:33;;;;;;;3.67;3.37;;;;;;;10.85;100.00;96092.50;5049317;27;105791;-77
2022/05/03 00:44:55;;;;;;;3.77;3.47;;;;;;;10.82;100.00;96088.50;5033343;27;101918;-77
2022/05/03 00:46:59;;;;;;;3.47;3.17;;;;;;;10.70;100.00;96090.56;5054221;27;102782;-77
2022/05/03 00:49:38;;;;;;;4.03;3.33;;;;;;;10.74;100.00;96090.84;5033275;27;101875;-77
2022/05/03 00:52:10;;;;;;;3.63;3.33;;;;;;;10.70;100.00;96087.91;5033136;27;105583;-77
2022/05/03 00:54:48;;;;;;;3.30;3.10;;;;;;;10.69;100.00;96078.31;5032529;27;105672;-77
2022/05/03 00:57:26;;;;;;;4.93;3.30;;;;;;;10.72;100.00;96076.97;5033072;27;102107;-77
2022/05/03 01:00:06;;;;;;;3.10;2.90;;;;;;;10.70;100.00;96073.78;5033303;27;105566;-77
2022/05/03 01:03:01;;;;;;;5.17;3.23;;;;;;;10.72;100.00;96067.16;5049432;27;105748;-77
2022/05/03 01:05:33;;;;;;;3.73;3.23;;;;;;;10.71;100.00;96080.72;5029624;27;103379;-77
2022/05/03 01:08:05;;;;;;;3.77;3.37;;;;;;;10.69;100.00;96070.31;5032887;27;104041;-77
2022/05/03 01:10:35;;;;;;;3.47;3.00;;;;;;;10.59;100.00;96072.94;5052886;27;105214;-77
2022/05/03 01:13:10;;;;;;;4.17;3.50;;;;;;;10.63;100.00;96081.22;5033064;27;105220;-77
2022/05/03 01:15:40;;;;;;;3.93;3.47;;;;;;;10.56;100.00;96069.97;5031822;27;105861;-77
2022/05/03 01:18:20;;;;;;;5.13;3.53;;;;;;;10.63;100.00;96074.03;5049759;27;101881;-77
2022/05/03 01:20:57;;;;;;;3.60;3.30;;;;;;;10.69;100.00;96074.84;5050742;27;102846;-77
2022/05/03 01:23:48;;;;;;;4.73;3.70;;;;;;;10.59;100.00;96074.81;5032181;27;102904;-77
2022/05/03 01:26:43;;;;;;;3.33;3.13;;;;;;;10.57;100.00;96080.38;5033025;27;101811;-77
2022/05/03 01:29:31;;;;;;;4.50;3.90;;;;;;;10.55;100.00;96073.72;5032884;27;104671;-77
2022/05/03 01:32:00;;;;;;;3.80;3.33;;;;;;;10.53;100.00;96073.97;5049012;27;105123;-77
2022/05/03 01:34:28;;;;;;;3.53;3.10;;;;;;;10.49;100.00;96074.72;5035772;27;102034;-77
2022/05/03 01:37:08;;;;;;;3.37;3.17;;;;;;;10.45;100.00;96073.66;5031967;27;105370;-77
2022/05/03 01:39:45;;;;;;;5.47;3.60;;;;;;;10.50;100.00;96076.34;5032593;27;102517;-77
2022/05/03 01:42:27;;;;;;;3.90;3.60;;;;;;;10.47;100.00;96076.88;5032624;27;105198;-77
2022/05/03 01:45:04;;;;;;;3.83;3.53;;;;;;;10.41;100.00;96075.22;5031751;27;105748;-77
2022/05/03 01:47:43;;;;;;;3.50;3.20;;;;;;;10.44;100.00;96070.19;5050953;27;101820;-77
2022/05/03 01:50:20;;;;;;;3.53;3.23;;;;;;;10.41;100.00;96062.72;5032507;27;103770;-77
2022/05/03 01:53:03;;;;;;;4.00;3.33;;;;;;;10.44;100.00;96072.03;5049988;27;103215;-77
2022/05/03 01:55:53;;;;;;;3.77;3.17;;;;;;;10.18;100.00;96076.41;5050650;27;101746;-77
2022/05/03 01:58:33;;;;;;;3.40;3.10;;;;;;;10.05;100.00;96081.34;5034992;27;105435;-77
2022/05/03 02:01:05;;;;;;;4.00;3.27;;;;;;;10.10;100.00;96086.69;5032342;27;102436;-77
2022/05/03 02:03:45;;;;;;;3.53;3.23;;;;;;;10.09;100.00;96079.78;5032290;27;105465;-77
2022/05/03 02:06:14;;;;;;;3.50;3.17;;;;;;;9.98;100.00;96080.72;5031456;27;105167;-77
2022/05/03 02:08:53;;;;;;;4.57;3.00;;;;;;;9.87;100.00;96073.75;5032216;27;102321;-77
2022/05/03 02:11:45;;;;;;;3.50;3.20;;;;;;;9.79;100.00;96076.84;5032113;27;105088;-77
2022/05/03 02:17:04;;;;;;;3.70;3.40;;;;;;;9.64;100.00;96079.34;5048852;27;102011;-77
2022/05/03 02:19:54;;;;;;;3.27;3.03;;;;;;;9.68;100.00;96075.97;5050307;27;102593;-77
2022/05/03 02:22:51;;;;;;;3.60;3.37;;;;;;;9.64;100.00;96079.34;5051726;27;105517;-77
2022/05/03 02:25:26;;;;;;;3.57;3.27;;;;;;;9.58;100.00;96080.34;5041101;27;104416;-77
2022/05/03 02:28:00;;;;;;;4.40;4.03;;;;;;;9.45;100.00;96081.59;5050890;27;102957;-77
2022/05/03 02:30:28;;;;;;;3.73;3.43;;;;;;;9.23;100.00;96083.47;5052269;27;102221;-77
2022/05/03 02:33:01;;;;;;;3.03;2.83;;;;;;;9.14;100.00;96089.44;5035668;27;105447;-76
2022/05/03 02:35:33;;;;;;;2.90;2.70;;;;;;;9.07;100.00;96081.72;5051653;27;105260;-76
2022/05/03 02:38:04;;;;;;;2.73;2.53;;;;;;;8.82;100.00;96092.00;5052279;27;101812;-76
2022/05/03 02:40:32;;;;;;;2.73;2.53;;;;;;;8.87;100.00;96092.06;5035251;27;105014;-76
2022/05/03 02:43:00;;;;;;;2.50;2.40;;;;;;;8.77;100.00;96093.81;5056741;27;103124;-76
2022/05/03 02:45:27;;;;;;;2.73;2.57;;;;;;;8.83;100.00;96096.25;5052219;27;104914;-76
2022/05/03 02:48:08;;;;;;;3.17;2.97;;;;;;;8.84;100.00;96097.84;5053189;27;103160;-76
2022/05/03 02:50:43;;;;;;;2.90;2.70;;;;;;;8.80;100.00;96088.00;5053253;27;101868;-77
2022/05/03 02:53:17;;;;;;;3.00;2.80;;;;;;;8.84;100.00;96089.88;5051810;27;105130;-76
2022/05/03 02:55:50;;;;;;;3.20;3.00;;;;;;;8.80;100.00;96082.69;5051400;27;104287;-76
2022/05/03 02:58:41;;;;;;;3.20;3.00;;;;;;;8.80;100.00;96095.94;5052003;27;101998;-76
2022/05/03 03:04:06;;;;;;;4.03;3.73;;;;;;;8.74;100.00;96096.94;5052781;27;103242;-76
2022/05/03 03:06:35;;;;;;;4.30;3.53;;;;;;;8.68;100.00;96095.25;5056805;27;101852;-76
2022/05/03 03:09:03;;;;;;;4.27;3.97;;;;;;;8.76;100.00;96103.59;5034400;27;105715;-76
2022/05/03 03:11:34;;;;;;;5.13;4.20;;;;;;;8.77;100.00;96105.19;5034572;27;101901;-76
2022/05/03 03:14:11;;;;;;;5.10;4.40;;;;;;;8.76;100.00;96093.00;5053504;27;102515;-76
2022/05/03 03:16:43;;;;;;;4.90;4.50;;;;;;;8.71;100.00;96084.97;5033796;27;105429;-76
2022/05/03 03:19:29;;;;;;;4.57;4.17;;;;;;;8.77;100.00;96091.16;5034813;27;101882;-76
2022/05/03 03:21:58;;;;;;;4.33;3.93;;;;;;;8.73;100.00;96088.16;5033056;27;105722;-77
2022/05/03 03:24:28;;;;;;;4.80;4.40;;;;;;;8.73;100.00;96088.16;5032849;27;105465;-77
2022/05/03 03:26:57;;;;;;;4.20;3.90;;;;;;;8.66;100.00;96092.03;5033665;27;101967;-76
2022/05/03 03:29:26;;;;;;;4.23;3.83;;;;;;;8.54;100.00;96083.41;5053542;27;105025;-76
2022/05/03 03:31:55;;;;;;;3.50;3.20;;;;;;;8.58;100.00;96085.34;5033547;27;101911;-76
2022/05/03 03:34:24;;;;;;;4.63;4.23;;;;;;;8.64;100.00;96088.84;5033319;27;106428;-76
2022/05/03 03:37:01;;;;;;;4.23;3.83;;;;;;;8.57;100.00;96091.66;5032483;27;105670;-77
2022/05/03 03:39:30;;;;;;;4.13;3.83;;;;;;;8.42;100.00;96096.78;5033007;27;101881;-77
2022/05/03 03:41:59;;;;;;;4.10;3.80;;;;;;;8.46;100.00;96084.63;5033323;27;105200;-77
2022/05/03 03:44:27;;;;;;;3.70;3.33;;;;;;;8.39;100.00;96083.22;5032452;27;104353;-76
2022/05/03 03:46:54;;;;;;;3.90;3.60;;;;;;;8.35;100.00;96088.16;5050060;27;101808;-76
2022/05/03 03:49:23;;;;;;;4.70;4.30;;;;;;;8.42;100.00;96085.34;5050018;27;106533;-76
2022/05/03 03:51:52;;;;;;;4.30;3.90;;;;;;;8.45;100.00;96090.19;5035812;27;104252;-76
2022/05/03 03:54:20;;;;;;;3.20;2.90;;;;;;;8.23;100.00;96090.13;5032962;27;103709;-76
2022/05/03 03:56:48;;;;;;;2.77;2.57;;;;;;;7.99;100.00;96088.66;5032301;27;105909;-76
2022/05/03 03:59:16;;;;;;;2.60;2.40;;;;;;;7.92;100.00;96095.94;5050802;27;101959;-76
2022/05/03 04:01:44;;;;;;;3.10;2.80;;;;;;;7.90;100.00;96099.91;5032994;27;104054;-76
2022/05/03 04:04:12;;;;;;;3.13;2.93;;;;;;;7.89;100.00;96099.09;5032251;27;105268;-76
2022/05/03 04:06:40;;;;;;;3.80;3.50;;;;;;;7.90;100.00;96092.75;5032511;27;101822;-76
2022/05/03 04:09:08;;;;;;;4.10;3.80;;;;;;;7.75;100.00;96099.66;5032910;27;105258;-76
2022/05/03 04:11:42;;;;;;;34.10;5.73;;;;;;;7.82;100.00;96093.16;5048863;27;105745;-76
2022/05/03 04:14:10;;;;;;;5.00;4.50;;;;;;;7.68;100.00;96096.38;5053100;27;101948;-76
2022/05/03 04:16:37;;;;;;;4.80;4.40;;;;;;;7.65;100.00;96094.19;5049938;27;103171;-76
2022/05/03 04:19:04;;;;;;;3.93;3.63;;;;;;;7.73;100.00;96091.94;5050890;27;101833;-76
2022/05/03 04:21:31;;;;;;;3.83;3.53;;;;;;;7.76;100.00;96102.06;4990364;27;1181758;-76
2022/05/03 04:24:00;;;;;;;5.00;4.50;;;;;;;7.88;100.00;96097.50;5050159;27;105122;-76
2022/05/03 04:26:27;;;;;;;4.50;4.10;;;;;;;7.99;100.00;96096.63;5033584;27;101890;-76
2022/05/03 04:28:56;;;;;;;4.30;4.00;;;;;;;8.03;100.00;96103.03;5033532;27;105162;-76
2022/05/03 04:31:25;;;;;;;4.30;4.00;;;;;;;8.20;100.00;96101.22;5032861;27;105417;-76
2022/05/03 04:33:53;;;;;;;3.37;3.17;;;;;;;8.25;100.00;96100.47;5050421;27;101848;-76
2022/05/03 04:36:22;;;;;;;3.50;3.20;;;;;;;8.29;100.00;96104.25;5036268;27;105099;-77
2022/05/03 04:38:48;;;;;;;3.90;3.60;;;;;;;8.35;100.00;96109.38;5050300;27;102226;-77
2022/05/03 04:41:18;;;;;;;3.40;3.17;;;;;;;8.45;100.00;96101.56;5033449;27;104928;-77
2022/05/03 04:43:45;;;;;;;3.80;3.50;;;;;;;8.49;100.00;96109.81;5032747;27;105437;-77
2022/05/03 04:46:12;;;;;;;3.70;3.40;;;;;;;8.51;100.00;96113.06;5033221;27;101739;-77
2022/05/03 04:48:40;;;;;;;4.20;3.80;;;;;;;8.52;100.00;96102.22;5033138;27;105551;-77
2022/05/03 04:51:07;;;;;;;4.70;4.30;;;;;;;8.46;100.00;96111.13;5031631;27;104047;-77
2022/05/03 04:53:34;;;;;;;4.87;4.47;;;;;;;8.26;100.00;96110.03;5032989;27;101882;-77
2022/05/03 04:56:01;;;;;;;6.40;5.27;;;;;;;8.39;100.00;96112.34;5036156;27;105633;-77
2022/05/03 04:58:30;;;;;;;5.10;4.70;;;;;;;8.55;100.00;96122.09;5051480;27;101793;-77
2022/05/03 05:00:56;;;;;;;5.30;4.83;;;;;;;8.69;100.00;96120.72;5032966;27;104932;-76
2022/05/03 05:03:23;;;;;;;5.40;4.83;;;;;;;8.77;100.00;96115.00;5049447;27;105659;-77
2022/05/03 05:05:51;;;;;;;5.83;5.33;;;;;;;8.98;100.00;96116.84;5049955;27;101871;-77
2022/05/03 05:08:18;;;;;;;7.50;6.10;;;;;;;9.09;100.00;96118.56;5051242;27;102567;-77
2022/05/03 05:10:45;;;;;;;9.70;6.23;;;;;;;9.23;100.00;96115.31;5049374;27;104442;-77
2022/05/03 05:13:12;;;;;;;6.80;6.03;;;;;;;9.39;100.00;96113.63;5049861;27;101950;-77
2022/05/03 05:15:40;;;;;;;6.83;6.23;;;;;;;9.53;100.00;96128.09;5032640;27;104951;-77
2022/05/03 05:18:08;;;;;;;6.97;6.37;;;;;;;9.75;100.00;96123.56;5035153;27;105266;-77
2022/05/03 05:20:35;;;;;;;7.37;6.47;;;;;;;9.88;100.00;96120.47;5049324;27;105196;-74
2022/05/03 05:23:02;;;;;;;7.23;6.50;;;;;;;10.01;100.00;96120.88;5032306;27;105345;-74
2022/05/03 05:25:29;;;;;;;6.90;6.10;;;;;;;10.14;100.00;96120.47;5032450;27;102045;-74
2022/05/03 05:27:56;;;;;;;6.77;6.07;;;;;;;10.20;100.00;96118.66;5032572;27;104821;-74
2022/05/03 05:30:22;;;;;;;6.77;6.07;;;;;;;10.31;100.00;96123.78;5031876;27;105749;-74
2022/05/03 05:32:51;;;;;;;6.23;5.37;;;;;;;10.39;100.00;96117.19;5051335;27;101756;-74
2022/05/03 05:35:19;;;;;;;6.40;5.17;;;;;;;10.36;100.00;96115.06;5032532;27;105462;-74
2022/05/03 05:37:46;;;;;;;5.40;4.97;;;;;;;10.44;100.00;96123.38;5031858;27;104301;-74
2022/05/03 05:40:13;;;;;;;5.43;4.50;;;;;;;10.63;100.00;96124.53;5035814;27;102207;-74
2022/05/03 05:42:42;;;;;;;5.37;4.87;;;;;;;10.70;100.00;96113.69;5050457;27;102803;-74
2022/05/03 05:45:09;;;;;;;4.90;4.50;;;;;;;11.01;100.00;96118.13;5032407;27;102051;-74
2022/05/03 05:47:36;;;;;;;5.10;4.60;;;;;;;10.87;100.00;96109.81;5049284;27;105544;-74
2022/05/03 05:50:06;;;;;;;5.10;3.90;;;;;;;10.77;100.00;96116.91;5050017;27;101723;-74
2022/05/03 05:55:17;;;;;;;4.80;3.90;;;;;;;10.84;100.00;96117.50;5048961;27;105164;-74
2022/05/03 05:57:44;;;;;;;4.13;3.80;;;;;;;11.00;100.00;96113.81;5031412;27;105694;-74
2022/05/03 06:00:12;;;;;;;6.33;3.83;;;;;;;11.03;100.00;96121.31;5031938;27;102256;-74
2022/05/03 06:02:39;;;;;;;4.30;4.00;;;;;;;11.30;100.00;96121.94;5035170;27;105466;-74
2022/05/03 06:05:09;;;;;;;4.10;3.80;;;;;;;11.31;100.00;96123.53;5032254;27;102032;-74
2022/05/03 06:07:36;;;;;;;4.33;3.97;;;;;;;11.42;100.00;96118.00;5050381;27;102615;-74
2022/05/03 06:10:04;;;;;;;4.27;3.87;;;;;;;11.60;100.00;96122.06;5031581;27;104286;-74
2022/05/03 06:12:31;;;;;;;4.00;3.70;;;;;;;11.52;100.00;96122.56;5031842;27;102003;-74
2022/05/03 06:14:58;;;;;;;4.93;4.00;;;;;;;11.70;100.00;96114.09;5032286;27;105285;-74
2022/05/03 06:17:25;;;;;;;4.87;4.10;;;;;;;11.78;100.00;96121.59;5047874;27;105127;-74
2022/05/03 06:19:52;;;;;;;4.30;3.80;;;;;;;11.78;100.00;96118.91;5048820;27;101896;-74
2022/05/03 06:22:21;;;;;;;4.10;3.70;;;;;;;11.50;100.00;96124.69;5031994;27;104229;-74
2022/05/03 06:24:48;;;;;;;4.50;4.10;;;;;;;11.73;100.00;96121.56;5034851;27;105236;-74
2022/05/03 06:27:15;;;;;;;4.07;3.77;;;;;;;11.86;100.00;96121.88;5049881;27;102854;-74
2022/05/03 06:29:43;;;;;;;4.03;3.63;;;;;;;12.04;100.00;96128.56;5048040;27;104281;-74
2022/05/03 06:32:11;;;;;;;4.40;4.00;;;;;;;12.07;100.00;96125.34;5031966;27;101979;-73
2022/05/03 06:34:38;;;;;;;6.27;4.17;;;;;;;11.92;100.00;96120.81;5031988;27;105853;-74
2022/05/03 06:37:05;;;;;;;4.17;3.80;;;;;;;12.07;100.00;96122.69;5030958;27;105724;-74
2022/05/03 06:39:36;;;;;;;4.57;4.17;;;;;;;12.16;100.00;96131.75;5031914;27;101845;-74
2022/05/03 06:42:06;;;;;;;3.83;3.50;;;;;;;12.25;100.00;96136.28;5031484;27;105682;-74
2022/05/03 06:44:33;;;;;;;3.87;3.47;;;;;;;12.29;100.00;96126.69;5031139;27;105695;-74
2022/05/03 06:47:01;;;;;;;4.00;3.70;;;;;;;12.31;100.00;96126.44;5052058;27;102128;-74
2022/05/03 06:49:27;;;;;;;3.53;3.33;;;;;;;12.45;100.00;96130.97;5047789;27;105667;-74
2022/05/03 06:51:55;;;;;;;3.83;3.47;;;;;;;12.50;100.00;96135.47;5031567;27;102219;-74
2022/05/03 06:54:21;;;;;;;4.00;3.47;;;;;;;12.67;100.00;96127.97;5031750;27;105694;-74
2022/05/03 06:56:51;;;;;;;4.10;3.70;;;;;;;12.80;100.00;96127.44;5047711;27;105354;-74
2022/05/03 06:59:18;;;;;;;4.13;3.27;;;;;;;12.88;100.00;96132.22;5031692;27;101902;-74
2022/05/03 07:01:45;;;;;;;3.10;2.90;;;;;;;12.82;100.00;96136.75;5031516;27;104827;-74
2022/05/03 07:04:12;;;;;;;3.30;3.00;;;;;;;12.99;100.00;96131.16;5030622;27;105226;-74
2022/05/03 07:06:39;;;;;;;3.40;3.20;;;;;;;13.30;100.00;96127.31;5034860;27;102351;-74
2022/05/03 07:09:06;;;;;;;3.70;3.20;;;;;;;13.34;100.00;96131.81;5030977;27;105462;-74
2022/05/03 07:11:33;;;;;;;3.43;3.10;;;;;;;13.40;100.00;96127.28;5048112;27;102476;-74
2022/05/03 07:14:02;;;;;;;3.30;3.00;;;;;;;13.53;100.00;96135.47;5049253;27;104780;-74
2022/05/03 07:16:29;;;;;;;4.07;3.10;;;;;;;13.51;100.00;96140.28;5033988;27;105015;-74
2022/05/03 07:24:25;;;;;;;2.97;2.40;;;;;;;13.69;100.00;96133.53;5052262;27;101862;-74
2022/05/03 07:26:52;;;;;;;2.73;2.53;;;;;;;13.88;100.00;96137.16;5034633;27;101959;-74
2022/05/03 07:29:22;;;;;;;4.00;2.80;;;;;;;14.09;100.00;96133.28;5037382;27;106586;-74
2022/05/03 07:31:51;;;;;;;3.17;2.57;;;;;;;13.98;100.00;96129.06;5034552;27;101969;-74
2022/05/03 07:34:18;;;;;;;2.93;2.73;;;;;;;13.82;100.00;96135.59;5034159;27;105962;-74
2022/05/03 07:36:44;;;;;;;2.57;2.37;;;;;;;14.00;100.00;96140.31;5033764;27;105973;-74
2022/05/03 07:39:12;;;;;;;3.30;2.10;;;;;;;14.10;100.00;96132.19;5051474;27;102190;-74
2022/05/03 07:41:39;;;;;;;2.23;2.03;;;;;;;14.16;100.00;96137.25;5034284;27;104733;-74
2022/05/03 07:44:06;;;;;;;2.13;1.90;;;;;;;14.38;100.00;96134.97;5050676;27;105654;-74
2022/05/03 07:46:34;;;;;;;2.60;2.10;;;;;;;14.29;100.00;96135.84;5033760;27;101963;-74
2022/05/03 07:49:01;;;;;;;2.17;2.00;;;;;;;14.40;100.00;96132.78;5034471;27;105658;-74
2022/05/03 07:51:28;;;;;;;2.50;2.30;;;;;;;14.86;100.00;96130.50;5053867;27;105448;-74
2022/05/03 07:53:55;;;;;;;2.27;2.07;;;;;;;14.95;100.00;96128.81;5051241;27;104846;-74
2022/05/03 07:56:21;;;;;;;2.33;2.13;;;;;;;14.71;100.00;96128.00;5033573;27;105696;-74
2022/05/03 07:58:49;;;;;;;2.53;2.33;;;;;;;15.15;100.00;96129.38;5033921;27;102201;-74
2022/05/03 08:01:16;;;;;;;2.40;2.00;;;;;;;15.28;100.00;96128.72;5034284;27;105147;-74
2022/05/03 08:03:44;;;;;;;1.60;1.60;;;;;;;15.47;100.00;96128.81;5033422;27;105382;-74
2022/05/03 08:06:12;;;;;;;2.43;2.23;;;;;;;15.18;100.00;96136.88;5033920;27;102050;-74
2022/05/03 08:08:38;;;;;;;1.90;1.80;;;;;;;15.20;100.00;96137.38;5033858;27;105264;-74
2022/05/03 08:11:05;;;;;;;1.70;1.53;;;;;;;15.50;100.00;96144.28;5033314;27;105998;-74
2022/05/03 08:13:32;;;;;;;2.03;1.93;;;;;;;15.26;100.00;96132.78;5037605;27;102421;-74
2022/05/03 08:15:59;;;;;;;3.17;2.00;;;;;;;15.43;100.00;96135.81;5033140;27;105820;-74
2022/05/03 08:18:26;;;;;;;2.60;2.03;;;;;;;15.75;100.00;96138.63;5033337;27;101939;-74
2022/05/03 08:20:55;;;;;;;2.10;1.87;;;;;;;16.27;100.00;96141.06;5050490;27;104862;-74
2022/05/03 08:23:22;;;;;;;2.30;2.00;;;;;;;16.00;100.00;96139.06;5033056;27;106201;-74
2022/05/03 08:25:49;;;;;;;2.23;1.93;;;;;;;16.04;100.00;96140.09;5032331;27;101901;-74
2022/05/03 08:28:17;;;;;;;2.03;1.80;;;;;;;16.22;100.00;96139.28;5033682;27;105712;-74
2022/05/03 08:30:44;;;;;;;2.50;2.10;;;;;;;16.74;100.00;96138.19;5032981;27;105219;-74
2022/05/03 08:33:11;;;;;;;2.00;1.90;;;;;;;16.92;100.00;96140.00;5033535;27;102003;-74
2022/05/03 08:35:39;;;;;;;2.13;1.93;;;;;;;17.12;100.00;96145.03;5036540;27;105235;-74
2022/05/03 08:43:37;;;;;;;1.60;1.50;;;;;;;17.13;100.00;96146.63;5049581;27;105698;-74
2022/05/03 08:46:06;;;;;;;1.67;1.57;;;;;;;17.74;100.00;96147.03;5033358;27;101922;-74
2022/05/03 08:48:36;;;;;;;1.90;1.70;;;;;;;18.14;100.00;96146.19;5033584;27;105624;-74
2022/05/03 08:51:04;;;;;;;3.80;1.80;;;;;;;17.39;100.00;96147.78;5049024;27;107305;-75
2022/05/03 08:53:34;;;;;;;2.87;1.70;;;;;;;17.29;100.00;96150.63;5033273;27;101746;-75
2022/05/03 08:56:01;;;;;;;1.47;1.37;;;;;;;17.51;100.00;96143.50;5033307;27;105726;-75
2022/05/03 08:58:29;;;;;;;2.60;1.63;;;;;;;17.57;100.00;96144.97;5035667;27;102014;-75
2022/05/03 09:00:56;;;;;;;2.63;1.53;;;;;;;17.57;100.00;96146.84;5049765;27;105472;-75
2022/05/03 09:03:24;;;;;;;3.47;1.70;;;;;;;17.79;100.00;96141.56;5049390;27;105065;-75
2022/05/03 09:05:52;;;;;;;1.73;1.63;;;;;;;18.22;100.00;96142.75;5033013;27;102056;-75
2022/05/03 09:08:23;;;;;;;1.73;1.63;;;;;;;17.44;100.00;96142.28;5051304;27;102865;-75
2022/05/03 09:10:53;;;;;;;1.90;1.70;;;;;;;18.03;100.00;96139.44;5051035;27;102810;-75
2022/05/03 09:13:22;;;;;;;2.13;1.90;;;;;;;18.02;100.00;96135.13;5033008;27;101868;-75
2022/05/03 09:15:52;;;;;;;1.60;1.50;;;;;;;17.83;100.00;96145.25;5032797;27;105206;-75
2022/05/03 09:18:24;;;;;;;2.07;1.80;;;;;;;18.57;100.00;96136.56;5052394;27;105654;-75
2022/05/03 09:23:48;;;;;;;2.60;1.80;;;;;;;19.56;100.00;96132.38;5008419;28;105277;-75
2022/05/03 09:26:19;;;;;;;1.83;1.70;;;;;;;19.55;100.00;96136.94;5009440;28;101950;-75
2022/05/03 09:28:48;;;;;;;1.80;1.70;;;;;;;19.85;100.00;96135.28;5009143;28;104970;-75
2022/05/03 09:31:28;;;;;;;1.50;1.50;;;;;;;20.14;100.00;96130.91;5008697;28;105715;-75
2022/05/03 09:33:55;;;;;;;2.27;1.60;;;;;;;20.21;99.76;96133.16;5009076;28;101897;-75
2022/05/03 09:36:22;;;;;;;2.27;1.63;;;;;;;20.56;100.00;96129.31;5008726;28;105310;-75
2022/05/03 09:38:50;;;;;;;1.50;1.43;;;;;;;20.69;98.76;96128.34;5025072;28;105111;-75
2022/05/03 09:41:18;;;;;;;2.57;1.80;;;;;;;20.74;91.45;96130.88;5012697;28;101785;-75
2022/05/03 09:44:02;;;;;;;2.10;1.90;;;;;;;20.86;96.38;96121.00;5025040;28;105161;-75
2022/05/03 09:46:30;;;;;;;1.97;1.87;;;;;;;20.89;83.87;96117.69;5008840;28;102111;-75
2022/05/03 09:48:57;;;;;;;1.70;1.60;;;;;;;20.70;93.92;96124.56;5008749;28;105574;-75
2022/05/03 09:51:24;;;;;;;2.90;1.67;;;;;;;20.83;89.27;96120.84;5024882;28;106573;-75
2022/05/03 09:53:58;;;;;;;2.70;1.73;;;;;;;19.82;93.53;96120.50;5008871;28;101803;-75
2022/05/03 09:56:28;;;;;;;2.50;1.60;;;;;;;19.39;99.36;96111.50;5009294;28;105368;-75
2022/05/03 09:59:00;;;;;;;2.53;1.83;;;;;;;18.66;99.94;96113.19;5009512;28;103161;-75
2022/05/03 10:01:27;;;;;;;1.90;1.70;;;;;;;18.71;100.00;96113.06;5010226;28;101881;-75
2022/05/03 10:03:55;;;;;;;2.73;1.60;;;;;;;19.10;100.00;96115.78;5028091;28;104985;-75
2022/05/03 10:06:23;;;;;;;2.20;1.70;;;;;;;19.16;96.91;96119.94;5025186;28;101932;-75
2022/05/03 10:08:51;;;;;;;1.77;1.63;;;;;;;19.47;91.24;96107.25;5025540;28;105551;-75
2022/05/03 10:11:21;;;;;;;2.17;1.53;;;;;;;20.23;87.83;96110.13;5024746;28;104947;-75
2022/05/03 10:13:49;;;;;;;1.23;1.23;;;;;;;20.62;86.72;96118.03;5025037;28;101864;-75
2022/05/03 10:21:56;;;;;;;2.13;1.57;;;;;;;20.49;75.37;96115.50;5042180;27;102045;-75
2022/05/03 10:24:24;;;;;;;1.83;1.73;;;;;;;20.96;82.68;96107.19;5049022;27;104912;-75
2022/05/03 10:26:56;;;;;;;1.80;1.70;;;;;;;21.17;89.93;96099.16;5051665;27;105014;-75
2022/05/03 10:29:25;;;;;;;1.80;1.70;;;;;;;21.56;100.00;96109.63;5031783;27;104886;-75
2022/05/03 10:31:55;;;;;;;1.60;1.50;;;;;;;21.95;93.04;96106.56;5031325;27;105783;-75
2022/05/03 10:34:45;;;;;;;2.83;1.80;;;;;;;22.57;82.04;96091.91;5031570;27;101872;-75
2022/05/03 10:37:14;;;;;;;1.27;1.27;;;;;;;22.80;69.69;96086.91;5031943;27;105323;-75
2022/05/03 10:39:51;;;;;;;1.90;1.70;;;;;;;22.57;76.43;96091.91;5031003;27;104983;-75
2022/05/03 10:42:22;;;;;;;1.70;1.33;;;;;;;22.29;79.61;96084.66;5031620;27;101975;-75
2022/05/03 10:45:03;;;;;;;1.80;1.70;;;;;;;22.14;75.58;96087.97;5048391;27;105345;-75
2022/05/03 10:47:48;;;;;;;1.83;1.73;;;;;;;22.09;86.76;96082.75;5049359;27;103045;-75
2022/05/03 10:50:33;;;;;;;1.53;1.43;;;;;;;22.96;72.64;96082.44;5056512;27;101682;-75
2022/05/03 10:53:20;;;;;;;1.90;1.80;;;;;;;22.74;74.78;96080.13;5034642;27;105062;-75
2022/05/03 10:56:18;;;;;;;1.97;1.87;;;;;;;23.17;69.16;96073.13;5034792;27;101930;-75
2022/05/03 10:58:47;;;;;;;1.57;1.47;;;;;;;22.99;78.69;96070.94;4993653;28;105234;-75
2022/05/03 11:01:19;;;;;;;2.03;1.93;;;;;;;22.64;67.13;96075.13;5024980;27;105182;-76
2022/05/03 11:04:10;;;;;;;1.83;1.40;;;;;;;22.75;81.19;96066.25;5035119;27;101912;-75
2022/05/03 11:06:41;;;;;;;2.50;1.70;;;;;;;22.98;80.82;96069.31;5053195;27;102614;-75
2022/05/03 11:09:15;;;;;;;2.33;1.80;;;;;;;23.25;85.03;96063.28;5052783;27;103798;-75
2022/05/03 11:11:53;;;;;;;1.70;1.60;;;;;;;23.51;61.96;96063.75;5038176;27;102404;-75
2022/05/03 11:14:55;;;;;;;2.37;1.57;;;;;;;24.06;62.62;96062.03;5034092;27;105722;-75
2022/05/03 11:17:24;;;;;;;1.50;1.40;;;;;;;24.27;57.65;96062.66;5034603;27;101782;-75
2022/05/03 11:20:02;;;;;;;2.37;1.63;;;;;;;24.58;61.25;96060.03;5051519;27;105153;-75
2022/05/03 11:22:31;;;;;;;2.37;1.60;;;;;;;23.78;54.53;96057.63;5033778;27;104380;-75
2022/05/03 11:25:00;;;;;;;1.50;1.40;;;;;;;23.25;65.48;96055.16;5034637;27;101955;-75
2022/05/03 11:27:28;;;;;;;1.73;1.63;;;;;;;22.26;60.46;96044.69;5034593;27;105574;-75
2022/05/03 11:29:59;;;;;;;2.97;1.70;;;;;;;21.42;70.11;96049.56;5033861;27;104362;-75
2022/05/03 11:32:38;;;;;;;1.73;1.60;;;;;;;22.07;62.87;96044.38;5034513;27;102154;-75
2022/05/03 11:35:16;;;;;;;1.90;1.80;;;;;;;22.49;63.51;96037.78;5037460;27;105428;-75
2022/05/03 11:37:49;;;;;;;1.47;1.37;;;;;;;22.95;65.28;96042.91;5051468;27;101836;-75
2022/05/03 11:40:19;;;;;;;2.57;1.70;;;;;;;23.54;64.60;96028.59;5052950;27;102480;-75
2022/05/03 11:42:46;;;;;;;1.63;1.50;;;;;;;23.98;58.77;96032.28;5050548;27;106487;-75
2022/05/03 11:45:15;;;;;;;1.50;1.40;;;;;;;23.00;54.39;96031.84;5034080;27;101945;-75
2022/05/03 11:47:46;;;;;;;1.37;1.27;;;;;;;22.66;62.59;96032.22;5051133;27;105521;-75
2022/05/03 11:55:58;;;;;;;1.57;1.50;;;;;;;23.29;61.51;96020.78;5033515;27;105128;-75
2022/05/03 11:56:01;;;;;;;2.00;1.83;;;;;;;22.48;62.48;96017.25;5002626;27;105335;-75
2022/05/03 11:58:34;;;;;;;2.87;1.93;;;;;;;23.57;64.77;96021.69;5036841;27;105464;-75
2022/05/03 12:01:02;;;;;;;2.23;1.43;;;;;;;23.83;58.39;96028.34;5033844;27;105932;-75
2022/05/03 12:03:45;;;;;;;1.53;1.43;;;;;;;23.41;60.85;96021.59;5050236;27;105691;-75
2022/05/03 12:06:13;;;;;;;1.50;1.40;;;;;;;23.16;63.82;96025.38;5052273;27;101811;-75
2022/05/03 12:08:40;;;;;;;2.07;1.53;;;;;;;23.56;64.85;96020.09;5033950;27;105343;-75
2022/05/03 12:11:19;;;;;;;3.60;2.00;;;;;;;22.39;67.45;96016.53;5050193;27;105769;-75